Time;durP1;ratioP1;P1;durP2;ratioP2;P2;SDS_P1;SDS_P2;PMS_P1;PMS_P2;Temp;Humidity;BMP_temperature;BMP_pressure;BME280_temperature;BME280_humidity;BME280_pressure;Samples;Min_cycle;Max_cycle;Signal;HPM_P1;HPM_P2
2022/10/06 00:01:30;;;;;;;;;;;;;;;-142.75;100.00;77420.75;5034558;28;19920;-67
2022/10/06 00:03:56;;;;;;;;;;;;;;;-142.75;100.00;77444.38;5052567;28;19967;-67
2022/10/06 00:06:21;;;;;;;;;;;;;;;-142.75;100.00;77444.38;5052431;28;19920;-67
2022/10/06 00:08:46;;;;;;;;;;;;;;;-142.75;100.00;77460.13;5052240;28;20389;-67
2022/10/06 00:11:12;;;;;;;;;;;;;;;-142.75;100.00;77462.13;5034601;28;20294;-66
2022/10/06 00:13:38;;;;;;;;;;;;;;;-142.75;100.00;77464.09;5052268;28;20379;-65
2022/10/06 00:16:11;;;;;;;;;;;;;;;-142.75;100.00;77475.91;5052299;28;19913;-67
2022/10/06 00:18:36;;;;;;;;;;;;;;;-142.75;100.00;77479.84;5052113;28;20043;-67
2022/10/06 00:21:03;;;;;;;;;;;;;;;-142.75;100.00;77489.69;5052223;28;19948;-67
2022/10/06 00:23:28;;;;;;;;;;;;;;;-142.75;100.00;77491.66;5034294;28;19913;-66
2022/10/06 00:25:53;;;;;;;;;;;;;;;-142.75;100.00;77515.28;5034355;28;20011;-68
2022/10/06 00:28:19;;;;;;;;;;;;;;;-142.75;100.00;77523.16;5033902;28;19927;-67
2022/10/06 00:30:45;;;;;;;;;;;;;;;-142.75;100.00;77515.28;5052163;28;19919;-68
2022/10/06 00:33:12;;;;;;;;;;;;;;;-142.75;100.00;77521.19;5052024;28;19917;-66
2022/10/06 00:35:37;;;;;;;;;;;;;;;-142.75;100.00;77531.03;5052079;28;19999;-67
2022/10/06 00:38:02;;;;;;;;;;;;;;;-142.75;100.00;77519.22;5057610;28;20011;-66
2022/10/06 00:40:28;;;;;;;;;;;;;;;-142.75;100.00;77531.03;5072161;28;19920;-67
2022/10/06 00:42:57;;;;;;;;;;;;;;;-142.75;100.00;77544.81;5053895;28;19912;-67
2022/10/06 00:45:26;;;;;;;;;;;;;;;-142.75;100.00;77550.72;5072059;28;19966;-67
2022/10/06 00:47:52;;;;;;;;;;;;;;;-142.75;100.00;77550.72;5071650;28;20015;-67
2022/10/06 00:50:18;;;;;;;;;;;;;;;-142.75;100.00;77556.63;5073653;28;19935;-66
2022/10/06 00:52:43;;;;;;;;;;;;;;;-142.75;100.00;77558.59;5058236;28;19916;-67
2022/10/06 00:55:09;;;;;;;;;;;;;;;-142.75;100.00;77558.59;5076107;28;20028;-67
2022/10/06 00:57:35;;;;;;;;;;;;;;;-142.75;100.00;77574.34;5075633;28;19966;-67
2022/10/06 01:00:01;;;;;;;;;;;;;;;-142.75;100.00;77574.34;5057966;28;19952;-67
2022/10/06 01:02:28;;;;;;;;;;;;;;;-142.75;100.00;77580.25;5075857;28;20005;-69
2022/10/06 01:04:55;;;;;;;;;;;;;;;-142.75;100.00;77594.03;5057874;28;20289;-67
2022/10/06 01:07:21;;;;;;;;;;;;;;;-142.75;100.00;77590.09;5075485;28;19920;-67
2022/10/06 01:09:46;;;;;;;;;;;;;;;-142.75;100.00;77609.78;5075789;28;20010;-67
2022/10/06 01:12:12;;;;;;;;;;;;;;;-142.75;100.00;77609.78;5075625;28;19956;-67
2022/10/06 01:14:38;;;;;;;;;;;;;;;-142.75;100.00;77613.72;5075664;28;19912;-68
2022/10/06 01:17:18;;;;;;;;;;;;;;;-142.75;100.00;77615.69;5075329;28;20007;-67
2022/10/06 01:19:46;;;;;;;;;;;;;;;-142.75;100.00;77627.50;5075574;28;19916;-69
2022/10/06 01:22:14;;;;;;;;;;;;;;;-142.75;100.00;77623.56;5075504;28;19913;-68
2022/10/06 01:24:39;;;;;;;;;;;;;;;-142.75;100.00;77633.41;5057357;28;19916;-67
2022/10/06 01:27:06;;;;;;;;;;;;;;;-142.75;100.00;77641.28;5075071;28;20266;-67
2022/10/06 01:29:32;;;;;;;;;;;;;;;-142.75;100.00;77649.16;5075386;28;19920;-67
2022/10/06 01:31:58;;;;;;;;;;;;;;;-142.75;100.00;77643.25;5075304;28;20295;-67
2022/10/06 01:34:23;;;;;;;;;;;;;;;-142.75;100.00;77649.16;5075228;28;19912;-67
2022/10/06 01:36:48;;;;;;;;;;;;;;;-142.75;100.00;77655.06;5057030;28;19917;-67
2022/10/06 01:39:14;;;;;;;;;;;;;;;-142.75;100.00;77647.19;5075098;28;19919;-67
2022/10/06 01:41:39;;;;;;;;;;;;;;;-142.75;100.00;77668.84;5057183;28;19924;-67
2022/10/06 01:44:04;;;;;;;;;;;;;;;-142.75;100.00;77668.84;5075170;28;19913;-67
2022/10/06 01:46:29;;;;;;;;;;;;;;;-142.75;100.00;77678.69;5074891;28;19912;-68
2022/10/06 01:48:55;;;;;;;;;;;;;;;-142.75;100.00;77678.69;5074849;28;20386;-67
2022/10/06 01:51:20;;;;;;;;;;;;;;;-142.75;100.00;77684.59;5074996;28;19920;-67
2022/10/06 01:53:45;;;;;;;;;;;;;;;-142.75;100.00;77674.75;5074731;28;19951;-67
2022/10/06 01:56:10;;;;;;;;;;;;;;;-142.75;100.00;77688.53;5074852;28;19958;-67
2022/10/06 01:58:35;;;;;;;;;;;;;;;-142.75;100.00;77692.47;5056689;28;19944;-67
2022/10/06 02:01:07;;;;;;;;;;;;;;;-142.75;100.00;77696.41;5074093;28;19913;-67
2022/10/06 02:03:34;;;;;;;;;;;;;;;-142.75;100.00;77700.34;5074380;28;19936;-67
2022/10/06 02:05:59;;;;;;;;;;;;;;;-142.75;100.00;77696.41;5074726;28;20394;-67
2022/10/06 02:08:24;;;;;;;;;;;;;;;-142.75;100.00;77716.09;5056238;28;20019;-69
2022/10/06 02:10:50;;;;;;;;;;;;;;;-142.75;100.00;77725.97;5074636;28;20461;-67
2022/10/06 02:13:15;;;;;;;;;;;;;;;-142.75;100.00;77723.97;5074550;28;20011;-68
2022/10/06 02:15:40;;;;;;;;;;;;;;;-142.75;100.00;77723.97;5074531;28;19913;-67
2022/10/06 02:18:06;;;;;;;;;;;;;;;-142.75;100.00;77722.00;5056212;28;19952;-67
2022/10/06 02:20:32;;;;;;;;;;;;;;;-142.75;100.00;77731.88;5056528;28;19952;-66
2022/10/06 02:22:57;;;;;;;;;;;;;;;-142.75;100.00;77733.84;5074256;28;20312;-67
2022/10/06 02:25:22;;;;;;;;;;;;;;;-142.75;100.00;77735.81;5074331;28;19917;-67
2022/10/06 02:27:47;;;;;;;;;;;;;;;-142.75;100.00;77737.78;5074093;28;19938;-67
2022/10/06 02:30:15;;;;;;;;;;;;;;;-142.75;100.00;77747.63;5074487;28;19913;-67
2022/10/06 02:32:41;;;;;;;;;;;;;;;-142.75;100.00;77745.66;5074269;28;20007;-67
2022/10/06 02:35:07;;;;;;;;;;;;;;;-142.75;100.00;77739.75;5074445;28;19989;-69
2022/10/06 02:37:32;;;;;;;;;;;;;;;-142.75;100.00;77749.59;5056011;28;20009;-67
2022/10/06 02:39:58;;;;;;;;;;;;;;;-142.75;100.00;77749.59;5074170;28;20362;-67
2022/10/06 02:42:23;;;;;;;;;;;;;;;-142.75;100.00;77751.56;5073987;28;19912;-67
2022/10/06 02:44:50;;;;;;;;;;;;;;;-142.75;100.00;77755.50;5074333;28;19917;-67
2022/10/06 02:47:15;;;;;;;;;;;;;;;-142.75;100.00;77751.56;5073572;28;19916;-68
2022/10/06 02:49:41;;;;;;;;;;;;;;;-142.75;100.00;77759.44;5055985;28;19962;-67
2022/10/06 02:52:07;;;;;;;;;;;;;;;-142.75;100.00;77759.44;5080163;22;19920;-67
2022/10/06 02:54:34;;;;;;;;;;;;;;;-142.75;100.00;77763.38;5049534;28;19963;-67
2022/10/06 02:56:59;;;;;;;;;;;;;;;-142.75;100.00;77775.19;5052093;28;20341;-67
2022/10/06 02:59:24;;;;;;;;;;;;;;;-142.75;100.00;77787.00;5053712;28;19921;-69
2022/10/06 03:01:51;;;;;;;;;;;;;;;-142.75;100.00;77783.06;5053665;28;20330;-67
2022/10/06 03:04:16;;;;;;;;;;;;;;;-142.75;100.00;77781.09;5053557;28;19917;-67
2022/10/06 03:06:41;;;;;;;;;;;;;;;-142.75;100.00;77790.94;5053239;28;20074;-67
2022/10/06 03:09:07;;;;;;;;;;;;;;;-142.75;100.00;77792.91;5053483;28;19952;-67
2022/10/06 03:11:34;;;;;;;;;;;;;;;-142.75;100.00;77802.75;5053498;28;19913;-67
2022/10/06 03:13:59;;;;;;;;;;;;;;;-142.75;100.00;77828.34;5053053;28;19913;-67
2022/10/06 03:16:29;;;;;;;;;;;;;;;-142.75;100.00;77820.47;5053296;28;20023;-67
2022/10/06 03:18:54;;;;;;;;;;;;;;;-142.75;100.00;77826.38;5053140;28;19928;-67
2022/10/06 03:21:30;;;;;;;;;;;;;;;-142.75;100.00;77818.50;5053209;28;19912;-67
2022/10/06 03:23:56;;;;;;;;;;;;;;;-142.75;100.00;77828.34;5035321;28;20337;-66
2022/10/06 03:26:22;;;;;;;;;;;;;;;-142.75;100.00;77830.31;5035364;28;19912;-67
2022/10/06 03:28:48;;;;;;;;;;;;;;;-142.75;100.00;77853.94;5052818;28;19917;-67
2022/10/06 03:31:13;;;;;;;;;;;;;;;-142.75;100.00;77848.03;5053077;28;19975;-66
2022/10/06 03:33:39;;;;;;;;;;;;;;;-142.75;100.00;77861.81;5053007;28;19913;-67
2022/10/06 03:36:06;;;;;;;;;;;;;;;-142.75;100.00;77857.88;5052919;28;19963;-66
2022/10/06 03:38:32;;;;;;;;;;;;;;;-142.75;100.00;77865.75;5052677;28;19948;-68
2022/10/06 03:41:01;;;;;;;;;;;;;;;-142.75;100.00;77871.66;5052928;28;19913;-67
2022/10/06 03:43:26;;;;;;;;;;;;;;;-142.75;100.00;77871.66;5052785;28;19913;-67
2022/10/06 03:45:59;;;;;;;;;;;;;;;-142.75;100.00;77871.66;5052755;28;19913;-66
2022/10/06 03:48:25;;;;;;;;;;;;;;;-142.75;100.00;77879.53;5034508;28;19992;-67
2022/10/06 03:50:54;;;;;;;;;;;;;;;-142.75;100.00;77875.59;5052717;28;19916;-67
2022/10/06 03:53:24;;;;;;;;;;;;;;;-142.75;100.00;77871.66;5052561;28;20398;-67
2022/10/06 03:55:49;;;;;;;;;;;;;;;-142.75;100.00;77873.63;5052698;28;20356;-66
2022/10/06 03:58:15;;;;;;;;;;;;;;;-142.75;100.00;77883.47;5052336;28;19920;-67
2022/10/06 04:00:40;;;;;;;;;;;;;;;-142.75;100.00;77885.44;5052520;28;19916;-68
2022/10/06 04:03:06;;;;;;;;;;;;;;;-142.75;100.00;77891.34;5052388;28;19913;-67
2022/10/06 04:05:31;;;;;;;;;;;;;;;-142.75;100.00;77899.22;5052491;28;20003;-67
2022/10/06 04:07:56;;;;;;;;;;;;;;;-142.75;100.00;77893.31;5052143;28;19996;-67
2022/10/06 04:10:22;;;;;;;;;;;;;;;-142.75;100.00;77903.16;5052420;28;20347;-68
2022/10/06 04:12:47;;;;;;;;;;;;;;;-142.75;100.00;77909.06;5052309;28;19919;-67
2022/10/06 04:15:12;;;;;;;;;;;;;;;-142.75;100.00;77924.84;5034466;28;19913;-66
2022/10/06 04:17:37;;;;;;;;;;;;;;;-142.75;100.00;77920.91;5051922;28;19951;-67
2022/10/06 04:20:02;;;;;;;;;;;;;;;-142.75;100.00;77940.59;5052226;28;19970;-67
2022/10/06 04:22:28;;;;;;;;;;;;;;;-142.75;100.00;77940.59;5034304;28;19920;-67
2022/10/06 04:24:53;;;;;;;;;;;;;;;-142.75;100.00;77942.56;5051886;28;20007;-67
2022/10/06 04:27:27;;;;;;;;;;;;;;;-142.75;100.00;77938.63;5051816;28;19917;-66
2022/10/06 04:29:52;;;;;;;;;;;;;;;-142.75;100.00;77950.44;5052132;28;19912;-67
2022/10/06 04:32:18;;;;;;;;;;;;;;;-142.75;100.00;77966.19;5051955;28;19966;-67
2022/10/06 04:34:43;;;;;;;;;;;;;;;-142.75;100.00;77968.16;5052126;28;19935;-67
2022/10/06 04:37:09;;;;;;;;;;;;;;;-142.75;100.00;77976.03;5033914;28;20433;-67
2022/10/06 04:39:36;;;;;;;;;;;;;;;-142.75;100.00;77976.03;5052081;28;19913;-67
2022/10/06 04:42:02;;;;;;;;;;;;;;;-142.75;100.00;77976.03;5051999;28;19920;-66
2022/10/06 04:44:27;;;;;;;;;;;;;;;-142.75;100.00;77974.06;5052250;28;19913;-66
2022/10/06 04:46:52;;;;;;;;;;;;;;;-142.75;100.00;77978.00;5051578;28;19917;-67
2022/10/06 04:49:18;;;;;;;;;;;;;;;-142.75;100.00;77983.91;5034113;28;19917;-67
2022/10/06 04:51:43;;;;;;;;;;;;;;;-142.75;100.00;77993.75;5051995;28;19990;-66
2022/10/06 04:54:09;;;;;;;;;;;;;;;-142.75;100.00;77981.94;5051798;28;20334;-67
2022/10/06 04:56:34;;;;;;;;;;;;;;;-142.75;100.00;77983.91;5051671;28;19913;-67
2022/10/06 04:58:59;;;;;;;;;;;;;;;-142.75;100.00;77993.75;5051800;28;19913;-66
2022/10/06 05:01:29;;;;;;;;;;;;;;;-142.75;100.00;77999.66;5051826;28;20436;-67
2022/10/06 05:03:56;;;;;;;;;;;;;;;-142.75;100.00;78005.56;5051791;28;20105;-67
2022/10/06 05:06:27;;;;;;;;;;;;;;;-142.75;100.00;78015.41;5051838;28;19940;-67
2022/10/06 05:09:03;;;;;;;;;;;;;;;-142.75;100.00;78015.41;5051528;28;19917;-66
2022/10/06 05:11:28;;;;;;;;;;;;;;;-142.75;100.00;78031.16;5051806;28;20039;-67
2022/10/06 05:13:54;;;;;;;;;;;;;;;-142.75;100.00;78033.13;5051595;28;19942;-67
2022/10/06 05:16:20;;;;;;;;;;;;;;;-142.75;100.00;78041.00;5051685;28;19955;-67
2022/10/06 05:18:45;;;;;;;;;;;;;;;-142.75;100.00;78042.97;5051410;28;19917;-67
2022/10/06 05:21:12;;;;;;;;;;;;;;;-142.75;100.00;78044.94;5051663;28;20458;-67
2022/10/06 05:23:39;;;;;;;;;;;;;;;-142.75;100.00;78046.91;5051495;28;20306;-67
2022/10/06 05:26:04;;;;;;;;;;;;;;;-142.75;100.00;78046.91;5051637;28;19939;-67
2022/10/06 05:28:30;;;;;;;;;;;;;;;-142.75;100.00;78058.72;5051093;28;20475;-67
2022/10/06 05:30:58;;;;;;;;;;;;;;;-142.75;100.00;78058.72;5051581;28;19920;-66
2022/10/06 05:33:24;;;;;;;;;;;;;;;-142.75;100.00;78072.53;5051552;28;20030;-67
2022/10/06 05:35:50;;;;;;;;;;;;;;;-142.75;100.00;78066.63;5034438;28;19967;-67
2022/10/06 05:38:15;;;;;;;;;;;;;;;-142.75;100.00;78070.56;5054949;28;19916;-66
2022/10/06 05:40:40;;;;;;;;;;;;;;;-142.75;100.00;78080.41;5055172;28;19913;-67
2022/10/06 05:43:06;;;;;;;;;;;;;;;-142.75;100.00;78078.44;5054977;28;19963;-66
2022/10/06 05:45:31;;;;;;;;;;;;;;;-142.75;100.00;78088.28;5055167;28;19966;-67
2022/10/06 05:47:56;;;;;;;;;;;;;;;-142.75;100.00;78094.19;5054621;28;19917;-67
2022/10/06 05:50:22;;;;;;;;;;;;;;;-142.75;100.00;78088.28;5054995;28;19913;-67
2022/10/06 05:52:47;;;;;;;;;;;;;;;-142.75;100.00;78098.13;5036928;28;20340;-67
2022/10/06 05:55:12;;;;;;;;;;;;;;;-142.75;100.00;78100.09;5054929;28;20366;-67
2022/10/06 05:57:38;;;;;;;;;;;;;;;-142.75;100.00;78098.13;5054442;28;20425;-67
2022/10/06 06:00:03;;;;;;;;;;;;;;;-142.75;100.00;78094.19;5054860;28;19913;-67
2022/10/06 06:02:29;;;;;;;;;;;;;;;-142.75;100.00;78092.22;5054725;28;20417;-67
2022/10/06 06:04:54;;;;;;;;;;;;;;;-142.75;100.00;78109.94;5054868;28;19913;-67
2022/10/06 06:07:19;;;;;;;;;;;;;;;-142.75;100.00;78090.25;5054374;28;20035;-67
2022/10/06 06:09:45;;;;;;;;;;;;;;;-142.75;100.00;78072.53;5054641;28;19970;-67
2022/10/06 06:12:10;;;;;;;;;;;;;;;-142.75;100.00;78078.44;5054434;28;20375;-67
2022/10/06 06:17:19;;;;;;;;;;;;;;;-142.75;100.00;78064.66;5054518;28;19919;-66
2022/10/06 06:19:44;;;;;;;;;;;;;;;-142.75;100.00;78046.91;5054489;28;19932;-67
2022/10/06 06:22:09;;;;;;;;;;;;;;;-142.75;100.00;78044.94;5054353;28;19913;-67
2022/10/06 06:24:34;;;;;;;;;;;;;;;-142.75;100.00;78042.97;5054273;28;19924;-66
2022/10/06 06:27:00;;;;;;;;;;;;;;;-142.75;100.00;78031.16;5053760;28;19960;-67
2022/10/06 06:29:25;;;;;;;;;;;;;;;-142.75;100.00;78031.16;5054223;28;19920;-69
2022/10/06 06:31:50;;;;;;;;;;;;;;;-142.75;100.00;78017.38;5054265;28;19920;-66
2022/10/06 06:34:15;;;;;;;;;;;;;;;-142.75;100.00;78009.50;5038191;28;20295;-67
2022/10/06 06:36:44;;;;;;;;;;;;;;;-142.75;100.00;77987.84;5052958;28;19917;-67
2022/10/06 06:39:10;;;;;;;;;;;;;;;-142.75;100.00;77974.06;5074123;28;20302;-67
2022/10/06 06:41:37;;;;;;;;;;;;;;;-142.75;100.00;77964.22;5058485;28;19925;-67
2022/10/06 06:44:02;;;;;;;;;;;;;;;-142.75;100.00;77966.19;5056628;28;19944;-67
2022/10/06 06:46:31;;;;;;;;;;;;;;;-142.75;100.00;77948.47;5059179;28;19956;-67
2022/10/06 06:48:57;;;;;;;;;;;;;;;-142.75;100.00;77946.50;5072629;28;19917;-66
2022/10/06 06:51:23;;;;;;;;;;;;;;;-142.75;100.00;77932.72;5067097;28;19917;-67
2022/10/06 06:53:48;;;;;;;;;;;;;;;-142.75;100.00;77915.00;5054751;28;19962;-66
2022/10/06 06:56:14;;;;;;;;;;;;;;;-142.75;100.00;77891.34;5055706;28;20294;-67
2022/10/06 06:58:42;;;;;;;;;;;;;;;-142.75;100.00;77873.63;5055886;28;19920;-67
2022/10/06 07:01:12;;;;;;;;;;;;;;;-142.75;100.00;77859.84;5049904;28;19919;-66
2022/10/06 07:03:38;;;;;;;;;;;;;;;-142.75;100.00;77865.75;5069732;28;19963;-66
2022/10/06 07:06:07;;;;;;;;;;;;;;;-142.75;100.00;77861.81;5073284;28;19960;-66
2022/10/06 07:08:33;;;;;;;;;;;;;;;-142.75;100.00;77812.59;5054359;28;19932;-67
2022/10/06 07:10:58;;;;;;;;;;;;;;;-142.75;100.00;77804.72;5069483;28;19916;-66
2022/10/06 07:13:23;;;;;;;;;;;;;;;-142.75;100.00;77788.97;5072928;28;19912;-66
2022/10/06 07:26:46;;;;;;;;;;;;;;;-142.75;100.00;77674.75;5066307;28;19982;-66
2022/10/06 07:29:11;;;;;;;;;;;;;;;-142.75;100.00;77668.84;5072016;28;19913;-65
2022/10/06 07:31:37;;;;;;;;;;;;;;;-142.75;100.00;77662.94;5057239;28;19926;-66
2022/10/06 07:34:06;;;;;;;;;;;;;;;-142.75;100.00;77684.59;5069927;28;19999;-66
2022/10/06 07:36:32;;;;;;;;;;;;;;;-142.75;100.00;77668.84;5071504;28;19925;-66
2022/10/06 07:38:57;;;;;;;;;;;;;;;-142.75;100.00;77653.09;5072092;28;19995;-65
2022/10/06 07:41:22;;;;;;;;;;;;;;;-142.75;100.00;77633.41;5064149;28;19955;-65
2022/10/06 07:43:48;;;;;;;;;;;;;;;-142.75;100.00;77621.59;5069265;28;19991;-64
2022/10/06 07:46:13;;;;;;;;;;;;;;;-142.75;100.00;77617.66;5052702;28;19916;-66
2022/10/06 07:48:39;;;;;;;;;;;;;;;-142.75;100.00;77601.91;5052472;28;19916;-65
2022/10/06 07:51:11;;;;;;;;;;;;;;;-142.75;100.00;77564.50;5034846;28;19912;-65
2022/10/06 07:53:37;;;;;;;;;;;;;;;-142.75;100.00;77554.66;5052620;28;19924;-66
2022/10/06 07:56:04;;;;;;;;;;;;;;;-142.75;100.00;77540.88;5052528;28;19966;-66
2022/10/06 07:58:29;;;;;;;;;;;;;;;-142.75;100.00;77515.28;5052147;28;19913;-66
2022/10/06 08:00:54;;;;;;;;;;;;;;;-142.75;100.00;77497.56;5054246;28;19973;-66
2022/10/06 08:03:20;;;;;;;;;;;;;;;-142.75;100.00;77487.72;5052670;28;19920;-66
2022/10/06 08:05:46;;;;;;;;;;;;;;;-142.75;100.00;77503.47;5052420;28;20590;-66
2022/10/06 08:08:13;;;;;;;;;;;;;;;-142.75;100.00;77507.41;5052114;28;19917;-66
2022/10/06 08:10:38;;;;;;;;;;;;;;;-142.75;100.00;77511.34;5052407;28;19917;-66
2022/10/06 08:13:04;;;;;;;;;;;;;;;-142.75;100.00;77491.66;5052208;28;19913;-66
2022/10/06 08:15:29;;;;;;;;;;;;;;;-142.75;100.00;77460.13;5052496;28;19924;-66
2022/10/06 08:17:57;;;;;;;;;;;;;;;-142.75;100.00;77444.38;5052004;28;19959;-66
2022/10/06 08:20:23;;;;;;;;;;;;;;;-142.75;100.00;77452.25;5052312;28;19912;-66
2022/10/06 08:22:48;;;;;;;;;;;;;;;-142.75;100.00;77430.59;5052195;28;20449;-66
2022/10/06 08:25:13;;;;;;;;;;;;;;;-142.75;100.00;77408.94;5052215;28;19913;-66
2022/10/06 08:27:42;;;;;;;;;;;;;;;-142.75;100.00;77424.69;5051833;28;20471;-66
2022/10/06 08:30:09;;;;;;;;;;;;;;;-142.75;100.00;77383.34;5052215;28;19913;-66
2022/10/06 08:32:34;;;;;;;;;;;;;;;-142.75;100.00;77369.56;5052072;28;19959;-66
2022/10/06 08:34:59;;;;;;;;;;;;;;;-142.75;100.00;77357.75;5052151;28;19917;-66
2022/10/06 08:37:25;;;;;;;;;;;;;;;-142.75;100.00;77377.44;5051876;28;19923;-67
2022/10/06 08:39:50;;;;;;;;;;;;;;;-142.75;100.00;77385.31;5052075;28;19913;-67
2022/10/06 08:42:21;;;;;;;;;;;;;;;-142.75;100.00;77353.81;5033959;28;20370;-66
2022/10/06 08:44:51;;;;;;;;;;;;;;;-142.75;100.00;77385.31;5052040;28;19920;-67
2022/10/06 08:47:18;;;;;;;;;;;;;;;-142.75;100.00;77381.38;5051614;28;19960;-66
2022/10/06 08:49:44;;;;;;;;;;;;;;;-142.75;100.00;77373.50;5051931;28;19913;-67
2022/10/06 08:52:32;;;;;;;;;;;;;;;-142.75;100.00;77334.13;5034002;28;19951;-67
2022/10/06 08:55:16;;;;;;;;;;;;;;;-142.75;100.00;77326.25;5081514;22;19924;-67
2022/10/06 08:57:57;;;;;;;;;;;;;;;-142.75;100.00;77330.19;5052255;28;20015;-67
2022/10/06 09:00:22;;;;;;;;;;;;;;;-142.75;100.00;77282.94;5071959;28;20054;-67
2022/10/06 09:02:48;;;;;;;;;;;;;;;-142.75;100.00;77265.22;5071876;28;20003;-67
2022/10/06 09:05:27;;;;;;;;;;;;;;;-142.75;100.00;77263.25;5053941;28;19920;-66
2022/10/06 09:07:52;;;;;;;;;;;;;;;-142.75;100.00;77231.75;5071488;28;19923;-67
2022/10/06 09:10:30;;;;;;;;;;;;;;;-142.75;100.00;77271.13;5071819;28;19939;-67
2022/10/06 09:12:59;;;;;;;;;;;;;;;-142.75;100.00;77277.03;5075683;28;20274;-67
2022/10/06 09:15:24;;;;;;;;;;;;;;;-142.75;100.00;77292.78;5057780;28;19956;-67
2022/10/06 09:17:54;;;;;;;;;;;;;;;-142.75;100.00;77322.31;5075258;28;19912;-67
2022/10/06 09:20:34;;;;;;;;;;;;;;;-142.75;100.00;77342.00;5057667;28;19959;-67
2022/10/06 09:23:03;;;;;;;;;;;;;;;-142.75;100.00;77408.94;5075433;28;19912;-67
2022/10/06 09:25:28;;;;;;;;;;;;;;;-142.75;100.00;77454.25;5075516;28;19913;-67
2022/10/06 09:27:55;;;;;;;;;;;;;;;-142.75;100.00;77495.59;5075098;28;20397;-67
2022/10/06 09:30:20;;;;;;;;;;;;;;;-142.75;100.00;77540.88;5075373;28;20008;-67
2022/10/06 09:32:46;;;;;;;;;;;;;;;-142.75;100.00;77548.75;5057265;28;20094;-64
2022/10/06 09:35:17;;;;;;;;;;;;;;;-142.75;100.00;77570.41;5075346;28;19920;-68
2022/10/06 09:37:50;;;;;;;;;;;;;;;-142.75;100.00;77590.09;5056969;28;20016;-67
2022/10/06 09:40:35;;;;;;;;;;;;;;;-142.75;100.00;77607.81;5075196;28;19916;-66
2022/10/06 09:43:01;;;;;;;;;;;;;;;-142.75;100.00;77603.88;5075125;28;19939;-67
2022/10/06 09:45:27;;;;;;;;;;;;;;;-142.75;100.00;77605.84;5075107;28;19991;-67
2022/10/06 09:47:53;;;;;;;;;;;;;;;-142.75;100.00;77515.28;5074781;28;19916;-67
2022/10/06 09:50:27;;;;;;;;;;;;;;;-142.75;100.00;77440.44;5057074;28;19912;-67
2022/10/06 09:53:04;;;;;;;;;;;;;;;-142.75;100.00;77440.44;5074766;28;19957;-67
2022/10/06 09:55:32;;;;;;;;;;;;;;;-142.75;100.00;77410.91;5074863;28;20378;-67
2022/10/06 09:57:58;;;;;;;;;;;;;;;-142.75;100.00;77340.03;5056524;28;19958;-66
2022/10/06 10:00:31;;;;;;;;;;;;;;;-142.75;100.00;77336.09;5074696;28;19956;-65
2022/10/06 10:03:01;;;;;;;;;;;;;;;-142.75;96.49;77304.59;5074619;28;19912;-67
2022/10/06 10:05:28;;;;;;;;;;;;;;;-142.75;99.42;77257.34;5074585;28;20370;-67
2022/10/06 10:08:08;;;;;;;;;;;;;;;-142.75;95.98;77231.75;5074108;28;19920;-64
2022/10/06 10:10:35;;;;;;;;;;;;;;;-142.75;87.37;77198.28;5056638;28;19913;-66
2022/10/06 10:13:01;;;;;;;;;;;;;;;-142.75;83.25;77158.91;5074533;28;19912;-67
2022/10/06 10:15:29;;;;;;;;;;;;;;;-142.75;81.38;77125.44;5056515;28;20590;-68
2022/10/06 10:17:57;;;;;;;;;;;;;;;-142.75;78.93;77184.50;5074318;28;19912;-67
2022/10/06 10:20:33;;;;;;;;;;;;;;;-142.75;80.50;77212.06;5074504;28;20403;-67
2022/10/06 10:23:00;;;;;;;;;;;;;;;-142.75;83.11;77123.47;5073347;28;20011;-67
2022/10/06 10:25:36;;;;;;;;;;;;;;;-142.75;79.05;77109.69;5074516;28;19937;-67
2022/10/06 10:28:15;;;;;;;;;;;;;;;-142.75;79.90;77117.56;5074129;28;19917;-67
2022/10/06 10:30:48;;;;;;;;;;;;;;;-142.75;77.61;77062.44;5074240;28;19947;-67
2022/10/06 10:33:32;;;;;;;;;;;;;;;-142.75;78.08;77052.59;5074366;28;19920;-67
2022/10/06 10:36:00;;;;;;;;;;;;;;;-142.75;74.94;77044.72;5074213;28;20015;-67
2022/10/06 10:38:26;;;;;;;;;;;;;;;-142.75;75.75;77046.69;5056015;28;19912;-67
2022/10/06 10:40:59;;;;;;;;;;;;;;;-142.75;76.15;77007.31;5074208;28;19912;-67
2022/10/06 10:43:27;;;;;;;;;;;;;;;-142.75;76.42;77017.16;5073972;28;20006;-67
2022/10/06 10:45:53;;;;;;;;;;;;;;;-142.75;73.13;77015.19;5074018;28;20386;-67
2022/10/06 10:48:22;;;;;;;;;;;;;;;-142.75;73.75;77001.41;5073765;28;19917;-67
2022/10/06 10:50:59;;;;;;;;;;;;;;;-142.75;73.77;76983.69;5074278;28;20373;-67
2022/10/06 10:53:27;;;;;;;;;;;;;;;-142.75;72.45;76964.00;5055668;28;19985;-67
2022/10/06 10:55:52;;;;;;;;;;;;;;;-142.75;70.78;77030.94;5073800;28;20003;-67
2022/10/06 10:58:27;;;;;;;;;;;;;;;-142.75;68.75;76967.94;5073529;28;20017;-67
2022/10/06 11:00:54;;;;;;;;;;;;;;;-142.75;70.79;76971.88;5055730;28;20302;-67
2022/10/06 11:03:19;;;;;;;;;;;;;;;-142.75;68.46;76979.75;5073678;28;19912;-67
2022/10/06 11:05:53;;;;;;;;;;;;;;;-142.75;67.78;76936.44;5073572;28;20289;-67
2022/10/06 11:08:28;;;;;;;;;;;;;;;-142.75;67.37;76952.19;5073031;28;20360;-67
2022/10/06 11:10:56;;;;;;;;;;;;;;;-142.75;68.75;76934.47;5073547;28;19912;-66
2022/10/06 11:13:24;;;;;;;;;;;;;;;-142.75;67.07;76944.31;5055521;28;19912;-67
2022/10/06 11:16:09;;;;;;;;;;;;;;;-142.75;68.03;76918.72;5055481;28;19916;-67
2022/10/06 11:18:40;;;;;;;;;;;;;;;-142.75;66.05;76950.22;5055465;28;20436;-67
2022/10/06 11:21:11;;;;;;;;;;;;;;;-142.75;69.14;76912.81;5073373;28;19913;-63
2022/10/06 11:23:36;;;;;;;;;;;;;;;-142.75;68.51;76914.78;5073086;28;19916;-67
2022/10/06 11:26:08;;;;;;;;;;;;;;;-142.75;68.09;76879.34;5073211;28;19919;-67
2022/10/06 11:28:40;;;;;;;;;;;;;;;-142.75;66.99;76920.69;5072930;28;19924;-67
2022/10/06 11:31:08;;;;;;;;;;;;;;;-142.75;65.79;76912.81;5073086;28;19920;-68
2022/10/06 11:33:40;;;;;;;;;;;;;;;-142.75;64.29;76928.56;5054873;28;19912;-66
2022/10/06 11:36:07;;;;;;;;;;;;;;;-142.75;66.79;76967.94;5055038;28;19913;-66
2022/10/06 11:38:40;;;;;;;;;;;;;;;-142.75;66.11;76958.09;5054759;28;19913;-67
2022/10/06 11:41:15;;;;;;;;;;;;;;;-142.75;67.04;76952.19;5054984;28;19924;-67
2022/10/06 11:43:59;;;;;;;;;;;;;;;-142.75;65.40;76944.31;5072803;28;19912;-67
2022/10/06 11:46:48;;;;;;;;;;;;;;;-142.75;66.38;76965.97;5072839;28;19958;-66
2022/10/06 11:49:28;;;;;;;;;;;;;;;-142.75;68.93;76989.59;5054726;28;19916;-67
2022/10/06 11:51:54;;;;;;;;;;;;;;;-142.75;72.05;77013.22;5072504;28;19941;-68
2022/10/06 11:54:35;;;;;;;;;;;;;;;-142.75;72.25;77044.72;5072434;28;20425;-66
2022/10/06 11:57:00;;;;;;;;;;;;;;;-142.75;71.32;76975.81;5071960;28;20407;-70
2022/10/06 11:59:26;;;;;;;;;;;;;;;-142.75;66.54;76960.06;5063075;28;19916;-67
2022/10/06 12:01:52;;;;;;;;;;;;;;;-142.75;67.90;76965.97;5062052;28;19913;-66
2022/10/06 12:04:17;;;;;;;;;;;;;;;-142.75;64.01;76938.41;5061002;28;19913;-66
2022/10/06 12:06:43;;;;;;;;;;;;;;;-142.75;65.22;76975.81;5062742;28;19935;-67
2022/10/06 12:09:35;;;;;;;;;;;;;;;-142.75;67.39;76971.88;5061549;28;19978;-67
2022/10/06 12:12:05;;;;;;;;;;;;;;;-142.75;66.36;76918.72;5055755;28;19912;-65
2022/10/06 12:14:43;;;;;;;;;;;;;;;-142.75;65.18;76924.63;5053876;28;19939;-67
2022/10/06 12:17:20;;;;;;;;;;;;;;;-142.75;65.35;76940.38;5062613;28;19978;-67
2022/10/06 12:19:51;;;;;;;;;;;;;;;-142.75;64.60;76924.63;5062146;28;19917;-67
2022/10/06 12:22:37;;;;;;;;;;;;;;;-142.75;64.58;76952.19;5034397;28;20279;-67
2022/10/06 12:25:02;;;;;;;;;;;;;;;-142.75;66.17;76936.44;5052380;28;19920;-67
2022/10/06 12:27:33;;;;;;;;;;;;;;;-142.75;65.22;76916.75;5051832;28;20386;-67
2022/10/06 12:30:01;;;;;;;;;;;;;;;-142.75;67.07;76924.63;5052286;28;19916;-68
2022/10/06 12:32:45;;;;;;;;;;;;;;;-142.75;66.67;76928.56;5052070;28;19958;-67
2022/10/06 12:35:15;;;;;;;;;;;;;;;-142.75;66.76;76904.94;5034239;28;19912;-67